Time;durP1;ratioP1;P1;durP2;ratioP2;P2;SDS_P1;SDS_P2;PMS_P1;PMS_P2;Temp;Humidity;BMP_temperature;BMP_pressure;BME280_temperature;BME280_humidity;BME280_pressure;Samples;Min_cycle;Max_cycle;Signal;HPM_P1;HPM_P2
2021/01/06 00:01:24;;;;;;;15.23;11.20;;;2.60;99.90;;;;;;5047514;28;20496;-47
2021/01/06 00:03:51;;;;;;;15.40;10.43;;;2.70;99.90;;;;;;5047319;28;20075;-45
2021/01/06 00:06:23;;;;;;;14.52;10.55;;;2.60;99.90;;;;;;5047339;28;20457;-48
2021/01/06 00:08:48;;;;;;;12.95;9.77;;;2.50;99.90;;;;;;5047391;28;20115;-47
2021/01/06 00:11:17;;;;;;;14.00;10.00;;;2.60;99.90;;;;;;5046904;28;20140;-48
2021/01/06 00:13:44;;;;;;;15.13;10.00;;;2.60;99.90;;;;;;5046736;28;20039;-46
2021/01/06 00:16:09;;;;;;;15.07;9.73;;;2.50;99.90;;;;;;5047264;28;20429;-51
2021/01/06 00:18:35;;;;;;;14.02;9.93;;;2.50;99.90;;;;;;5047603;28;20056;-47
2021/01/06 00:21:00;;;;;;;12.98;10.38;;;2.60;99.90;;;;;;5047245;28;20029;-45
2021/01/06 00:23:26;;;;;;;15.15;9.75;;;2.60;99.90;;;;;;5047765;28;20028;-49
2021/01/06 00:25:51;;;;;;;11.75;8.85;;;2.60;99.90;;;;;;5048779;28;20029;-48
2021/01/06 00:28:19;;;;;;;15.55;9.50;;;2.50;99.90;;;;;;5047515;28;20480;-45
2021/01/06 00:30:50;;;;;;;13.70;10.02;;;2.50;99.90;;;;;;5046823;28;20029;-45
2021/01/06 00:33:19;;;;;;;15.98;8.95;;;2.60;99.90;;;;;;5046763;28;20048;-45
2021/01/06 00:35:53;;;;;;;11.02;8.73;;;2.50;99.90;;;;;;5046927;28;20029;-49
2021/01/06 00:38:18;;;;;;;12.82;9.32;;;2.50;99.90;;;;;;5045794;28;20025;-48
2021/01/06 00:40:45;;;;;;;15.88;9.77;;;2.60;99.90;;;;;;5049511;28;20447;-50
2021/01/06 00:43:13;;;;;;;14.27;9.85;;;2.60;99.90;;;;;;5050772;28;20021;-47
2021/01/06 00:45:39;;;;;;;14.57;10.32;;;2.50;99.90;;;;;;5051213;28;20037;-47
2021/01/06 00:48:05;;;;;;;13.77;9.57;;;2.60;99.90;;;;;;5049493;28;20040;-49
2021/01/06 00:50:31;;;;;;;14.43;10.27;;;2.60;99.90;;;;;;5051278;28;20029;-47
2021/01/06 00:53:01;;;;;;;11.77;8.38;;;2.60;99.90;;;;;;5050347;28;20495;-45
2021/01/06 00:55:27;;;;;;;14.52;9.60;;;2.70;99.90;;;;;;5050232;28;20025;-49
2021/01/06 00:57:54;;;;;;;12.80;9.20;;;2.80;99.90;;;;;;5050956;28;20032;-46
2021/01/06 01:00:21;;;;;;;13.27;9.23;;;2.80;99.90;;;;;;5050535;28;20032;-51
2021/01/06 01:02:50;;;;;;;12.32;8.77;;;2.80;99.90;;;;;;5050279;28;20101;-48
2021/01/06 01:05:21;;;;;;;11.15;8.43;;;2.70;99.90;;;;;;5050156;28;20025;-48
2021/01/06 01:07:48;;;;;;;11.43;8.40;;;2.70;99.90;;;;;;5069043;23;20037;-49
2021/01/06 01:10:49;;;;;;;11.23;8.20;;;2.70;99.90;;;;;;5053309;28;20021;-46
2021/01/06 01:13:23;;;;;;;12.63;9.23;;;2.80;99.90;;;;;;5028499;28;20033;-52
2021/01/06 01:15:53;;;;;;;10.88;8.50;;;2.70;99.90;;;;;;5045891;28;20075;-53
2021/01/06 01:18:22;;;;;;;12.75;8.45;;;2.70;99.90;;;;;;5053509;28;20021;-52
2021/01/06 01:20:50;;;;;;;11.60;8.43;;;2.70;99.90;;;;;;5052062;28;20025;-54
2021/01/06 01:23:18;;;;;;;11.82;8.68;;;2.70;99.90;;;;;;5052645;28;20081;-49
2021/01/06 01:25:44;;;;;;;11.70;8.70;;;2.70;99.90;;;;;;5053116;28;20029;-55
2021/01/06 01:28:13;;;;;;;10.18;7.80;;;2.70;99.90;;;;;;5053160;28;20061;-56
2021/01/06 01:30:39;;;;;;;9.57;7.80;;;2.70;99.90;;;;;;5053163;28;20099;-51
2021/01/06 01:33:05;;;;;;;10.82;8.00;;;2.80;99.90;;;;;;5052549;28;20164;-51
2021/01/06 01:35:32;;;;;;;11.15;8.02;;;2.70;99.90;;;;;;5053029;28;20390;-53
2021/01/06 01:38:00;;;;;;;13.85;8.02;;;2.60;99.90;;;;;;5050619;28;20379;-51
2021/01/06 01:40:32;;;;;;;13.55;8.98;;;2.70;99.90;;;;;;5053379;28;20087;-55
2021/01/06 01:43:17;;;;;;;12.95;8.57;;;2.60;99.90;;;;;;5052231;28;20017;-55
2021/01/06 01:45:46;;;;;;;12.43;8.60;;;2.60;99.90;;;;;;5051434;28;20029;-53
2021/01/06 01:48:18;;;;;;;11.35;7.95;;;2.60;99.90;;;;;;5051367;28;20122;-60
2021/01/06 01:50:45;;;;;;;11.23;9.10;;;2.60;99.90;;;;;;5052011;28;20033;-53
2021/01/06 01:53:15;;;;;;;13.93;8.50;;;2.60;99.90;;;;;;5051749;28;20456;-51
2021/01/06 01:55:41;;;;;;;10.63;7.97;;;2.50;99.90;;;;;;5051515;28;20031;-55
2021/01/06 01:58:14;;;;;;;10.68;8.23;;;2.60;99.90;;;;;;5052574;28;20021;-56
2021/01/06 02:00:40;;;;;;;12.07;8.63;;;2.60;99.90;;;;;;5051336;28;20404;-53
2021/01/06 02:03:10;;;;;;;11.85;9.35;;;2.60;99.90;;;;;;5051840;28;20017;-50
2021/01/06 02:06:03;;;;;;;10.63;7.78;;;2.60;99.90;;;;;;5052569;28;20017;-52
2021/01/06 02:08:41;;;;;;;12.85;9.32;;;2.60;99.90;;;;;;5052526;28;20044;-50
2021/01/06 02:11:16;;;;;;;13.15;9.27;;;2.60;99.90;;;;;;5052315;28;20111;-52
2021/01/06 02:13:48;;;;;;;12.95;9.02;;;2.60;99.90;;;;;;5051698;28;20025;-50
2021/01/06 02:16:35;;;;;;;14.60;9.55;;;2.70;99.90;;;;;;5051967;28;20032;-54
2021/01/06 02:19:01;;;;;;;15.30;9.63;;;2.70;99.90;;;;;;5052165;28;20021;-54
2021/01/06 02:21:28;;;;;;;15.63;9.15;;;2.60;99.90;;;;;;5052318;28;20047;-54
2021/01/06 02:23:58;;;;;;;15.20;10.15;;;2.50;99.90;;;;;;5051159;28;20048;-54
2021/01/06 02:26:27;;;;;;;14.38;9.48;;;2.50;99.90;;;;;;5052258;28;20025;-52
2021/01/06 02:28:54;;;;;;;11.05;8.10;;;2.50;99.90;;;;;;5052027;28;20056;-52
2021/01/06 02:31:19;;;;;;;16.30;10.65;;;2.50;99.90;;;;;;5050699;28;20025;-50
2021/01/06 02:33:46;;;;;;;16.20;9.88;;;2.60;99.90;;;;;;5051262;28;20025;-52
2021/01/06 02:36:12;;;;;;;14.40;9.90;;;2.60;99.90;;;;;;5050331;28;20029;-53
2021/01/06 02:38:38;;;;;;;14.10;9.25;;;2.70;99.90;;;;;;5051834;28;20046;-55
2021/01/06 02:41:05;;;;;;;13.93;9.13;;;2.60;99.90;;;;;;5050941;28;20032;-49
2021/01/06 02:43:31;;;;;;;17.98;9.80;;;2.70;99.90;;;;;;5051194;28;20025;-51
2021/01/06 02:45:57;;;;;;;16.92;9.80;;;2.60;99.90;;;;;;5051728;28;20029;-49
2021/01/06 02:48:24;;;;;;;15.63;10.23;;;2.70;99.90;;;;;;5051977;28;20025;-57
2021/01/06 02:50:52;;;;;;;13.98;9.35;;;2.70;99.90;;;;;;5050466;28;20021;-53
2021/01/06 02:53:33;;;;;;;12.85;8.88;;;2.70;99.90;;;;;;5050840;28;20028;-55
2021/01/06 02:55:59;;;;;;;15.40;9.43;;;2.70;99.90;;;;;;5051543;28;20021;-53
2021/01/06 02:58:26;;;;;;;15.55;9.85;;;2.70;99.90;;;;;;5050570;28;20104;-51
2021/01/06 03:00:53;;;;;;;15.15;10.15;;;2.60;99.90;;;;;;5050254;28;20124;-52
2021/01/06 03:03:23;;;;;;;14.00;9.15;;;2.60;99.90;;;;;;5049297;28;20021;-51
2021/01/06 03:06:08;;;;;;;12.07;9.20;;;2.60;99.90;;;;;;5052036;28;20037;-51
2021/01/06 03:08:37;;;;;;;14.88;9.55;;;2.60;99.90;;;;;;5051404;28;20039;-49
2021/01/06 03:11:04;;;;;;;13.07;8.93;;;2.60;99.90;;;;;;5051327;28;20036;-50
2021/01/06 03:13:30;;;;;;;18.85;10.52;;;2.60;99.90;;;;;;5050556;28;20176;-52
2021/01/06 03:15:56;;;;;;;13.50;9.20;;;2.60;99.90;;;;;;5050994;28;20496;-49
2021/01/06 03:18:21;;;;;;;14.10;10.32;;;2.70;99.90;;;;;;5050184;28;20083;-49
2021/01/06 03:20:50;;;;;;;15.40;10.50;;;2.70;99.90;;;;;;5051235;28;20052;-49
2021/01/06 03:23:27;;;;;;;14.68;10.48;;;2.60;99.90;;;;;;5050319;28;20442;-54
2021/01/06 03:25:53;;;;;;;12.68;9.10;;;2.50;99.90;;;;;;5051027;28;20479;-48
2021/01/06 03:28:21;;;;;;;13.77;9.52;;;2.50;99.90;;;;;;5051696;28;20040;-49
2021/01/06 03:30:48;;;;;;;14.55;10.57;;;2.60;99.90;;;;;;5051305;28;20028;-49
2021/01/06 03:33:23;;;;;;;15.70;9.73;;;2.60;99.90;;;;;;5050750;28;20079;-49
2021/01/06 03:35:56;;;;;;;14.25;9.65;;;2.60;99.90;;;;;;5050499;28;20017;-54
2021/01/06 03:38:31;;;;;;;13.57;9.60;;;2.60;99.90;;;;;;5050723;28;20036;-54
2021/01/06 03:40:57;;;;;;;15.02;10.40;;;2.70;99.90;;;;;;5050974;28;20021;-52
2021/01/06 03:43:26;;;;;;;13.50;9.38;;;2.80;99.90;;;;;;5050224;28;20379;-48
2021/01/06 03:46:00;;;;;;;12.10;9.13;;;2.60;99.90;;;;;;5050479;28;20082;-52
2021/01/06 03:48:33;;;;;;;11.93;8.57;;;2.60;99.90;;;;;;5050888;28;20113;-54
2021/01/06 03:51:17;;;;;;;16.25;9.45;;;2.50;99.90;;;;;;5050590;28;20078;-50
2021/01/06 03:53:47;;;;;;;12.23;8.50;;;2.50;99.90;;;;;;5048834;28;20075;-53
2021/01/06 03:56:24;;;;;;;18.77;8.85;;;2.50;99.90;;;;;;5049078;28;20487;-53
2021/01/06 03:59:14;;;;;;;11.60;8.23;;;2.50;99.90;;;;;;5050611;28;20085;-53
2021/01/06 04:02:11;;;;;;;14.07;7.97;;;2.50;99.90;;;;;;5050378;28;20075;-56
2021/01/06 04:04:46;;;;;;;10.85;7.10;;;2.50;99.90;;;;;;5049907;28;20434;-52
2021/01/06 04:07:23;;;;;;;10.80;7.50;;;2.50;99.90;;;;;;5050217;28;20237;-55
2021/01/06 04:09:53;;;;;;;14.05;8.15;;;2.50;99.90;;;;;;5050504;28;20029;-50
2021/01/06 04:12:19;;;;;;;12.75;8.15;;;2.50;99.90;;;;;;5050361;28;20013;-51
2021/01/06 04:14:45;;;;;;;12.80;8.65;;;2.60;99.90;;;;;;5051041;28;20032;-51
2021/01/06 04:17:30;;;;;;;19.42;8.77;;;2.60;99.90;;;;;;5054608;28;20112;-52
2021/01/06 04:20:13;;;;;;;11.98;8.30;;;2.60;99.90;;;;;;5054437;28;20105;-52
2021/01/06 04:22:44;;;;;;;13.75;8.88;;;2.60;99.90;;;;;;5053813;28;20438;-54
2021/01/06 04:25:37;;;;;;;10.82;7.88;;;2.70;99.90;;;;;;5054558;28;20021;-51
2021/01/06 04:28:13;;;;;;;12.18;8.00;;;2.70;99.90;;;;;;5054115;28;20028;-50
2021/01/06 04:30:56;;;;;;;14.73;8.45;;;2.70;99.90;;;;;;5054023;28;20033;-51
2021/01/06 04:33:29;;;;;;;11.77;8.25;;;2.70;99.90;;;;;;5053449;28;20511;-50
2021/01/06 04:35:57;;;;;;;13.30;7.75;;;2.70;99.90;;;;;;5053551;28;20044;-54
2021/01/06 04:38:32;;;;;;;12.65;7.57;;;2.70;99.90;;;;;;5054051;28;20275;-53
2021/01/06 04:41:09;;;;;;;12.20;8.57;;;2.70;99.90;;;;;;5053959;28;20035;-49
2021/01/06 04:43:43;;;;;;;16.35;8.35;;;2.60;99.90;;;;;;5053214;28;20557;-52
2021/01/06 04:46:45;;;;;;;12.45;8.40;;;2.60;99.90;;;;;;5053961;28;20067;-55
2021/01/06 04:49:37;;;;;;;13.75;8.73;;;2.60;99.90;;;;;;5053984;28;20044;-54
2021/01/06 04:52:40;;;;;;;10.15;7.40;;;2.50;99.90;;;;;;5053890;28;20035;-52
2021/01/06 04:55:21;;;;;;;16.42;9.95;;;2.60;99.90;;;;;;5052735;28;20167;-52
2021/01/06 04:57:58;;;;;;;12.02;7.18;;;2.60;99.90;;;;;;5053789;28;20017;-53
2021/01/06 05:00:31;;;;;;;12.25;8.55;;;2.50;99.90;;;;;;5053886;28;20455;-50
2021/01/06 05:03:28;;;;;;;11.93;7.68;;;2.60;99.90;;;;;;5053148;28;20032;-50
2021/01/06 05:06:08;;;;;;;13.77;7.68;;;2.60;99.90;;;;;;5053352;28;20070;-55
2021/01/06 05:08:41;;;;;;;13.63;8.25;;;2.60;99.90;;;;;;5053964;28;20035;-50
2021/01/06 05:11:12;;;;;;;11.45;7.80;;;2.60;99.90;;;;;;5053637;28;20427;-50
2021/01/06 05:13:52;;;;;;;11.65;8.35;;;2.60;99.90;;;;;;5052860;28;20029;-53
2021/01/06 05:16:21;;;;;;;13.57;8.15;;;2.70;99.90;;;;;;5053288;28;20021;-53
2021/01/06 05:18:47;;;;;;;12.68;8.98;;;2.70;99.90;;;;;;5053295;28;20103;-53
2021/01/06 05:21:16;;;;;;;16.38;8.18;;;2.80;99.90;;;;;;5053235;28;20395;-49
2021/01/06 05:23:43;;;;;;;12.88;8.40;;;2.90;99.90;;;;;;5052561;28;20105;-52
2021/01/06 05:26:09;;;;;;;12.85;9.10;;;2.90;99.90;;;;;;5052166;28;20036;-48
2021/01/06 05:28:35;;;;;;;12.48;8.40;;;3.00;99.90;;;;;;5053351;28;20021;-51
2021/01/06 05:31:00;;;;;;;13.98;9.02;;;2.90;99.90;;;;;;5053071;28;20116;-49
2021/01/06 05:33:39;;;;;;;10.70;7.78;;;2.90;99.90;;;;;;5056754;28;20521;-51
2021/01/06 05:36:05;;;;;;;10.65;7.30;;;2.90;99.90;;;;;;5058319;28;20029;-51
2021/01/06 05:38:31;;;;;;;11.13;7.68;;;2.90;99.90;;;;;;5053300;28;20024;-56
2021/01/06 05:40:56;;;;;;;11.75;8.30;;;2.90;99.90;;;;;;5052840;28;20454;-51
2021/01/06 05:43:27;;;;;;;16.08;8.82;;;3.00;99.90;;;;;;5052278;28;20025;-51
2021/01/06 05:45:57;;;;;;;13.10;7.57;;;3.00;99.90;;;;;;5051318;28;20068;-51
2021/01/06 05:48:52;;;;;;;12.23;7.90;;;2.90;99.90;;;;;;5051465;28;20025;-52
2021/01/06 05:51:31;;;;;;;10.05;6.75;;;3.00;99.90;;;;;;5052622;28;20021;-54
2021/01/06 05:53:57;;;;;;;10.45;7.07;;;3.10;99.90;;;;;;5051808;28;20025;-55
2021/01/06 05:56:39;;;;;;;16.65;7.63;;;3.10;99.90;;;;;;5052267;28;20025;-51
2021/01/06 05:59:18;;;;;;;15.63;8.07;;;3.20;99.90;;;;;;5051210;28;20492;-50
2021/01/06 06:02:18;;;;;;;12.75;8.75;;;3.20;99.90;;;;;;5052366;28;20032;-48
2021/01/06 06:05:19;;;;;;;15.48;7.45;;;3.20;99.90;;;;;;5051749;28;20033;-48
2021/01/06 06:08:03;;;;;;;13.13;7.82;;;3.30;99.90;;;;;;5050765;28;20087;-54
2021/01/06 06:10:36;;;;;;;9.95;7.18;;;3.30;99.90;;;;;;5051058;28;20396;-51
2021/01/06 06:13:16;;;;;;;10.10;7.53;;;3.30;99.90;;;;;;5051732;28;20028;-49
2021/01/06 06:16:17;;;;;;;11.20;7.72;;;3.30;99.90;;;;;;5050753;28;20025;-52
2021/01/06 06:19:23;;;;;;;11.77;7.55;;;3.30;99.90;;;;;;5050651;28;20295;-50
2021/01/06 06:22:23;;;;;;;11.32;7.40;;;3.20;99.90;;;;;;5049460;28;20037;-55
2021/01/06 06:25:18;;;;;;;11.18;7.25;;;3.30;99.90;;;;;;5051363;28;20280;-54
2021/01/06 06:27:49;;;;;;;15.80;7.90;;;3.30;99.90;;;;;;5051892;28;20399;-55
2021/01/06 06:30:23;;;;;;;7.88;6.65;;;3.30;99.90;;;;;;5052383;28;20021;-49
2021/01/06 06:32:49;;;;;;;26.50;8.80;;;3.30;99.90;;;;;;5051237;28;20032;-52
2021/01/06 06:35:23;;;;;;;8.93;7.03;;;3.30;99.90;;;;;;5052047;28;20029;-52
2021/01/06 06:37:54;;;;;;;10.20;7.32;;;3.30;99.90;;;;;;5051391;28;20028;-54
2021/01/06 06:40:20;;;;;;;8.75;6.60;;;3.30;99.90;;;;;;5051070;28;20371;-54
2021/01/06 06:42:48;;;;;;;11.63;7.10;;;3.20;99.90;;;;;;5051383;28;20025;-54
2021/01/06 06:45:42;;;;;;;11.57;7.10;;;3.30;99.90;;;;;;5052290;28;20029;-53
2021/01/06 06:48:27;;;;;;;11.75;7.18;;;3.30;99.90;;;;;;5051861;28;20104;-47
2021/01/06 06:51:18;;;;;;;11.83;6.97;;;3.20;99.90;;;;;;5051750;28;20031;-56
2021/01/06 06:53:53;;;;;;;8.95;6.25;;;3.20;99.90;;;;;;5047562;28;20278;-55
2021/01/06 06:56:40;;;;;;;10.05;6.82;;;3.20;99.90;;;;;;5051514;28;20502;-53
2021/01/06 06:59:19;;;;;;;9.60;6.13;;;3.20;99.90;;;;;;5051507;28;20028;-53
2021/01/06 07:01:47;;;;;;;8.77;6.22;;;3.20;99.90;;;;;;5050183;28;20025;-55
2021/01/06 07:04:12;;;;;;;13.38;6.50;;;3.20;99.90;;;;;;5050782;28;20025;-56
2021/01/06 07:06:38;;;;;;;9.45;6.70;;;3.20;99.90;;;;;;5068933;23;20088;-48
2021/01/06 07:09:05;;;;;;;10.07;7.20;;;3.20;99.90;;;;;;5049766;28;20032;-53
2021/01/06 07:11:47;;;;;;;9.70;6.85;;;3.20;99.90;;;;;;5049677;28;20021;-50
2021/01/06 07:14:39;;;;;;;8.30;7.10;;;3.20;99.90;;;;;;5050308;28;20021;-50
2021/01/06 07:17:12;;;;;;;11.30;7.43;;;3.30;99.90;;;;;;5051049;28;20076;-50
2021/01/06 07:19:50;;;;;;;14.48;8.23;;;3.20;99.90;;;;;;5051026;28;20017;-52
2021/01/06 07:22:22;;;;;;;10.98;6.78;;;3.30;99.90;;;;;;5051232;28;20053;-55
2021/01/06 07:25:16;;;;;;;10.98;8.02;;;3.30;99.90;;;;;;5050306;28;20017;-49
2021/01/06 07:27:42;;;;;;;15.05;7.80;;;3.30;99.90;;;;;;5049878;28;20120;-52
2021/01/06 07:30:09;;;;;;;11.98;7.72;;;3.30;99.90;;;;;;5050628;28;20056;-50
2021/01/06 07:32:43;;;;;;;9.55;7.63;;;3.40;99.90;;;;;;5050114;28;20025;-49
2021/01/06 07:35:21;;;;;;;11.35;7.90;;;3.40;99.90;;;;;;5050603;28;20150;-49
2021/01/06 07:37:59;;;;;;;12.45;7.03;;;3.40;99.90;;;;;;5050420;28;20029;-52
2021/01/06 07:40:30;;;;;;;9.23;7.18;;;3.40;99.90;;;;;;5050659;28;20092;-51
2021/01/06 07:43:17;;;;;;;8.80;6.35;;;3.40;99.90;;;;;;5049856;28;20475;-55
2021/01/06 07:45:50;;;;;;;8.77;6.93;;;3.40;99.90;;;;;;5049256;28;20113;-55
2021/01/06 07:48:15;;;;;;;12.35;6.75;;;3.40;99.90;;;;;;5050669;28;20170;-52
2021/01/06 07:50:49;;;;;;;9.45;6.38;;;3.40;99.90;;;;;;5049704;28;20069;-54
2021/01/06 07:53:18;;;;;;;10.82;7.57;;;3.40;99.90;;;;;;5049660;28;20029;-54
2021/01/06 07:55:52;;;;;;;14.95;8.07;;;3.40;99.90;;;;;;5047571;28;20063;-55
2021/01/06 07:58:27;;;;;;;12.07;8.38;;;3.50;99.90;;;;;;5050168;28;20139;-53
2021/01/06 08:00:55;;;;;;;12.35;8.60;;;3.50;99.90;;;;;;5050299;28;20032;-51
2021/01/06 08:03:42;;;;;;;14.00;9.00;;;3.60;99.90;;;;;;5049944;28;20495;-53
2021/01/06 08:06:08;;;;;;;13.80;8.32;;;3.60;99.90;;;;;;5050155;28;20039;-51
2021/01/06 08:08:51;;;;;;;14.05;8.13;;;3.70;99.90;;;;;;5050186;28;20041;-49
2021/01/06 08:11:21;;;;;;;11.88;6.47;;;3.70;99.90;;;;;;5050353;28;20033;-53
2021/01/06 08:13:49;;;;;;;18.50;8.85;;;3.70;99.90;;;;;;5049397;28;20028;-52
2021/01/06 08:16:30;;;;;;;13.35;8.05;;;3.70;99.90;;;;;;5049968;28;20231;-50
2021/01/06 08:19:21;;;;;;;11.38;8.07;;;3.70;99.90;;;;;;5048886;28;20025;-49
2021/01/06 08:22:11;;;;;;;14.07;8.07;;;3.70;99.90;;;;;;5050176;28;20029;-51
2021/01/06 08:24:44;;;;;;;9.50;7.65;;;3.80;99.90;;;;;;5049135;28;20025;-49
2021/01/06 08:27:27;;;;;;;10.70;7.78;;;3.70;99.90;;;;;;5048217;28;20017;-49
2021/01/06 08:30:17;;;;;;;12.15;7.78;;;3.60;99.90;;;;;;5049979;28;20368;-51
2021/01/06 08:32:42;;;;;;;9.35;7.20;;;3.50;99.90;;;;;;5049375;28;20071;-51
2021/01/06 08:35:17;;;;;;;12.68;8.63;;;3.40;99.90;;;;;;5049945;28;20033;-51
2021/01/06 08:37:50;;;;;;;14.50;7.40;;;3.40;99.90;;;;;;5050229;28;20484;-53
2021/01/06 08:40:39;;;;;;;14.38;7.88;;;3.40;99.90;;;;;;5050085;28;20463;-51
2021/01/06 08:43:12;;;;;;;13.80;7.75;;;3.40;99.90;;;;;;5049322;28;20017;-51
2021/01/06 08:45:41;;;;;;;10.65;7.88;;;3.40;99.90;;;;;;5048348;28;20090;-53
2021/01/06 08:48:35;;;;;;;11.20;7.07;;;3.40;99.90;;;;;;5049921;28;20116;-53
2021/01/06 08:51:13;;;;;;;8.77;6.93;;;3.40;99.90;;;;;;5049635;28;20039;-52
2021/01/06 08:53:41;;;;;;;10.20;7.07;;;3.50;99.90;;;;;;5048064;28;20063;-52
2021/01/06 08:56:11;;;;;;;9.73;6.65;;;3.50;99.90;;;;;;5049883;28;20028;-54
2021/01/06 08:58:46;;;;;;;8.07;6.63;;;3.60;99.90;;;;;;5050044;28;20025;-53
2021/01/06 09:01:24;;;;;;;9.38;6.38;;;3.70;99.90;;;;;;5050484;28;20111;-52
2021/01/06 09:04:06;;;;;;;10.63;6.25;;;3.60;99.90;;;;;;5051504;28;20043;-49
2021/01/06 09:06:32;;;;;;;8.82;5.80;;;3.60;99.90;;;;;;5053593;28;20513;-51
2021/01/06 09:09:03;;;;;;;8.10;6.20;;;3.70;99.90;;;;;;5053224;28;20037;-49
2021/01/06 09:11:34;;;;;;;14.43;6.90;;;3.80;99.90;;;;;;5053422;28;20033;-54
2021/01/06 09:14:03;;;;;;;8.20;6.03;;;3.70;99.90;;;;;;5051293;28;20033;-52
2021/01/06 09:16:31;;;;;;;10.48;6.60;;;3.70;99.90;;;;;;5053362;28;20029;-52
2021/01/06 09:19:09;;;;;;;7.80;5.45;;;3.70;99.90;;;;;;5051901;28;20017;-54
2021/01/06 09:21:35;;;;;;;9.75;7.05;;;3.70;99.90;;;;;;5052262;28;20021;-51
2021/01/06 09:24:23;;;;;;;8.15;6.40;;;3.70;99.90;;;;;;5052691;28;20104;-50
2021/01/06 09:27:01;;;;;;;8.20;5.78;;;3.70;99.90;;;;;;5053262;28;20028;-55
2021/01/06 09:29:28;;;;;;;8.18;5.97;;;3.70;99.90;;;;;;5053298;28;20411;-53
2021/01/06 09:32:00;;;;;;;9.45;6.30;;;3.70;99.90;;;;;;5053218;28;20442;-50
2021/01/06 09:34:33;;;;;;;5.35;4.75;;;3.70;99.90;;;;;;5052716;28;20025;-52
2021/01/06 09:36:59;;;;;;;6.72;5.53;;;3.70;99.90;;;;;;5053346;28;20510;-49
2021/01/06 09:39:27;;;;;;;7.15;5.45;;;3.70;99.90;;;;;;5052345;28;20032;-55
2021/01/06 09:41:55;;;;;;;10.18;6.38;;;3.70;99.90;;;;;;5052527;28;20075;-53
2021/01/06 09:44:21;;;;;;;6.32;5.22;;;3.70;99.90;;;;;;5052158;28;20025;-48
2021/01/06 09:46:56;;;;;;;5.68;4.95;;;3.70;99.90;;;;;;5052564;28;20086;-47
2021/01/06 09:49:29;;;;;;;6.18;5.05;;;3.70;99.90;;;;;;5052382;28;20028;-54
2021/01/06 09:51:59;;;;;;;6.88;4.72;;;3.60;99.90;;;;;;5052223;28;20527;-52
2021/01/06 09:54:25;;;;;;;7.13;5.38;;;3.70;99.90;;;;;;5032193;28;20531;-61
2021/01/06 09:56:53;;;;;;;7.40;5.72;;;3.70;99.90;;;;;;5052119;28;20024;-49
2021/01/06 09:59:25;;;;;;;6.13;5.07;;;3.70;99.90;;;;;;5052249;28;20033;-48
2021/01/06 10:02:06;;;;;;;6.38;5.30;;;3.70;99.90;;;;;;5052302;28;20022;-53
2021/01/06 10:04:36;;;;;;;6.25;5.15;;;3.80;99.90;;;;;;5051565;28;20029;-51
2021/01/06 10:07:33;;;;;;;5.40;4.63;;;3.80;99.90;;;;;;5052146;28;20107;-49
2021/01/06 10:10:08;;;;;;;6.30;4.70;;;3.80;99.90;;;;;;5051891;28;20143;-56
2021/01/06 10:12:37;;;;;;;;;;;3.80;99.90;;;;;;5050583;28;20033;-49
2021/01/06 10:15:21;;;;;;;5.90;5.10;;;3.80;99.90;;;;;;5051586;28;19955;-53
2021/01/06 10:18:17;;;;;;;5.18;4.28;;;3.80;99.90;;;;;;5052036;28;20075;-52
2021/01/06 10:21:00;;;;;;;5.30;4.78;;;3.80;99.90;;;;;;5051698;28;20025;-49
2021/01/06 10:23:53;;;;;;;5.25;4.72;;;3.80;99.90;;;;;;5035688;28;20052;-51
2021/01/06 10:26:37;;;;;;;7.25;4.80;;;3.80;99.90;;;;;;5051924;28;20108;-52
2021/01/06 10:29:13;;;;;;;6.28;4.60;;;3.90;99.90;;;;;;5051912;28;20394;-49
2021/01/06 10:32:10;;;;;;;6.72;5.07;;;3.90;99.90;;;;;;5050140;28;20043;-51
2021/01/06 10:34:39;;;;;;;8.77;4.35;;;3.90;99.90;;;;;;5050657;28;20043;-49
2021/01/06 10:37:10;;;;;;;5.40;4.80;;;3.90;99.90;;;;;;5051286;28;20399;-53
2021/01/06 10:39:41;;;;;;;5.72;4.80;;;3.90;99.90;;;;;;5051388;28;20115;-52
2021/01/06 10:42:28;;;;;;;7.43;5.20;;;4.00;99.90;;;;;;5031618;28;20022;-53
2021/01/06 10:45:13;;;;;;;10.65;4.35;;;4.00;99.90;;;;;;5050161;28;20033;-53
2021/01/06 10:47:51;;;;;;;5.05;4.60;;;4.00;99.90;;;;;;5050424;28;20110;-50
2021/01/06 10:50:43;;;;;;;5.32;4.50;;;4.00;99.90;;;;;;5051286;28;20028;-52
2021/01/06 10:53:30;;;;;;;5.00;4.50;;;4.10;99.90;;;;;;5034040;28;20025;-50
2021/01/06 10:56:11;;;;;;;7.53;4.72;;;4.10;99.90;;;;;;5050796;28;20033;-50
2021/01/06 10:58:59;;;;;;;4.43;4.00;;;4.20;99.90;;;;;;5031532;28;20021;-50
2021/01/06 11:01:24;;;;;;;6.05;4.68;;;4.20;99.90;;;;;;5031480;28;20013;-51
2021/01/06 11:04:23;;;;;;;5.30;4.63;;;4.20;99.90;;;;;;5037314;28;20455;-51
2021/01/06 11:07:23;;;;;;;5.72;4.60;;;4.10;99.90;;;;;;5051099;28;20044;-51
2021/01/06 11:10:21;;;;;;;6.07;4.55;;;4.00;99.90;;;;;;5050863;28;20467;-55
2021/01/06 11:13:05;;;;;;;5.93;4.60;;;4.00;99.90;;;;;;5050007;28;20032;-50
2021/01/06 11:15:48;;;;;;;5.95;4.72;;;4.10;99.90;;;;;;5050537;28;20029;-50
2021/01/06 11:18:22;;;;;;;5.03;4.53;;;4.00;99.90;;;;;;5050830;28;20625;-50
2021/01/06 11:21:13;;;;;;;5.20;4.70;;;4.00;99.90;;;;;;5050624;28;20035;-52
2021/01/06 11:23:48;;;;;;;5.18;4.57;;;4.10;99.90;;;;;;5046242;28;20052;-51
2021/01/06 11:26:31;;;;;;;6.20;4.45;;;4.10;99.90;;;;;;5049379;28;20025;-51
2021/01/06 11:29:17;;;;;;;4.97;4.18;;;4.20;99.90;;;;;;5050711;28;20487;-55
2021/01/06 11:31:50;;;;;;;;;;;4.20;99.90;;;;;;5051384;28;20502;-52
2021/01/06 11:34:15;;;;;;;4.07;3.67;;;4.20;99.90;;;;;;5048844;28;19913;-47
2021/01/06 11:36:53;;;;;;;4.68;4.20;;;4.20;99.90;;;;;;5050664;28;20036;-50
2021/01/06 11:39:28;;;;;;;4.47;4.07;;;4.20;99.90;;;;;;5041687;28;20021;-48
2021/01/06 11:42:17;;;;;;;4.60;4.07;;;4.30;99.90;;;;;;5050298;28;20075;-50
2021/01/06 11:45:07;;;;;;;5.40;4.38;;;4.30;99.90;;;;;;5041745;28;20095;-54
2021/01/06 11:47:52;;;;;;;3.83;3.53;;;4.20;99.90;;;;;;5062113;28;20025;-53
2021/01/06 11:50:40;;;;;;;4.10;3.70;;;4.20;99.90;;;;;;5035849;28;20027;-47
2021/01/06 11:53:26;;;;;;;4.80;4.30;;;4.20;99.90;;;;;;5050090;28;20071;-48
2021/01/06 11:56:23;;;;;;;4.90;3.92;;;4.30;99.90;;;;;;5050508;28;20398;-52
2021/01/06 11:59:26;;;;;;;5.10;3.67;;;4.20;99.90;;;;;;5050671;28;20035;-49
2021/01/06 12:02:08;;;;;;;3.78;3.38;;;4.20;99.90;;;;;;5049410;28;20435;-48
2021/01/06 12:04:58;;;;;;;3.60;3.35;;;4.20;99.90;;;;;;5048322;28;20024;-52
2021/01/06 12:08:00;;;;;;;4.30;4.00;;;4.30;99.90;;;;;;5049459;28;20060;-51
2021/01/06 12:10:54;;;;;;;3.95;3.65;;;4.30;99.90;;;;;;5049773;28;20064;-53
2021/01/06 12:13:45;;;;;;;4.07;3.65;;;4.30;99.90;;;;;;5050119;28;20115;-49
2021/01/06 12:16:22;;;;;;;5.25;4.68;;;4.30;99.90;;;;;;5050288;28;20404;-50
2021/01/06 12:19:06;;;;;;;4.07;3.67;;;4.30;99.90;;;;;;5050183;28;20031;-48
2021/01/06 12:21:34;;;;;;;3.47;3.17;;;4.30;99.90;;;;;;5050285;28;20035;-50
2021/01/06 12:24:18;;;;;;;5.05;3.88;;;4.40;99.90;;;;;;5050098;28;20021;-49
2021/01/06 12:26:54;;;;;;;3.70;3.40;;;4.30;99.90;;;;;;5050076;28;20514;-49
2021/01/06 12:29:22;;;;;;;3.65;3.33;;;4.30;99.90;;;;;;5049974;28;20111;-50
2021/01/06 12:32:31;;;;;;;3.88;3.55;;;4.40;99.90;;;;;;5050423;28;20475;-50
2021/01/06 12:35:23;;;;;;;4.57;3.90;;;4.50;99.90;;;;;;5041026;28;20047;-49
2021/01/06 12:38:13;;;;;;;4.28;3.80;;;4.70;99.90;;;;;;5054717;28;20104;-49
2021/01/06 12:41:03;;;;;;;4.20;3.70;;;4.70;99.90;;;;;;5054328;28;20020;-49
2021/01/06 12:43:57;;;;;;;4.20;3.83;;;4.70;99.90;;;;;;5053971;28;20028;-54
2021/01/06 12:46:32;;;;;;;4.10;3.70;;;4.70;99.90;;;;;;5054462;28;20064;-53
2021/01/06 12:49:24;;;;;;;4.57;3.97;;;4.70;99.90;;;;;;5054311;28;20487;-53
2021/01/06 12:51:50;;;;;;;4.00;3.42;;;4.60;99.90;;;;;;5054362;28;20495;-51
2021/01/06 12:54:18;;;;;;;3.72;3.42;;;4.60;99.90;;;;;;5053366;28;20079;-52
2021/01/06 12:57:00;;;;;;;4.10;3.70;;;4.70;99.90;;;;;;5053882;28;20052;-50
2021/01/06 12:59:26;;;;;;;3.33;3.13;;;4.60;99.90;;;;;;5054102;28;20503;-52
2021/01/06 13:02:32;;;;;;;3.72;3.42;;;4.50;99.90;;;;;;5053917;28;20025;-54
2021/01/06 13:05:20;;;;;;;5.75;4.47;;;4.60;99.90;;;;;;5053944;28;20025;-53
2021/01/06 13:07:52;;;;;;;4.00;3.67;;;4.60;99.90;;;;;;5065089;23;20535;-48
2021/01/06 13:10:18;;;;;;;4.15;3.78;;;4.50;99.90;;;;;;5033704;28;20021;-43
2021/01/06 13:12:57;;;;;;;4.18;3.85;;;4.50;99.90;;;;;;5031727;28;20498;-45
2021/01/06 13:15:31;;;;;;;6.20;3.58;;;4.50;99.90;;;;;;5034178;28;20451;-43
2021/01/06 13:18:04;;;;;;;3.05;2.85;;;4.50;99.90;;;;;;5033317;28;20060;-46
2021/01/06 13:20:54;;;;;;;3.53;3.22;;;4.60;99.90;;;;;;5033990;28;20439;-49
2021/01/06 13:23:40;;;;;;;3.92;3.53;;;4.70;99.90;;;;;;5032347;28;20514;-46
2021/01/06 13:26:17;;;;;;;;;;;4.70;99.90;;;;;;5033403;28;20034;-43
2021/01/06 13:29:07;;;;;;;4.38;3.15;;;4.70;99.90;;;;;;5033234;28;19905;-44
2021/01/06 13:31:42;;;;;;;3.40;3.10;;;4.60;99.90;;;;;;5033154;28;20052;-55
2021/01/06 13:34:37;;;;;;;4.00;3.65;;;4.60;99.90;;;;;;5039520;28;20033;-52
2021/01/06 13:37:08;;;;;;;3.03;2.72;;;4.70;99.90;;;;;;5042931;28;20396;-45